createdAt,value
2018-12-08T00:00:55.110Z,89.69
2018-12-08T00:01:55.099Z,90.50
2018-12-08T00:02:55.088Z,89.89
2018-12-08T00:03:55.090Z,89.37
2018-12-08T00:04:55.067Z,89.78
2018-12-08T00:05:55.060Z,90.14
2018-12-08T00:06:55.044Z,89.83
2018-12-08T00:07:55.035Z,89.93
2018-12-08T00:08:55.031Z,90.65
2018-12-08T00:09:55.011Z,90.75
2018-12-08T00:10:55.002Z,91.57
2018-12-08T00:11:54.997Z,92.50
2018-12-08T00:12:54.980Z,91.67
2018-12-08T00:13:54.977Z,92.44
2018-12-08T00:14:54.958Z,92.80
2018-12-08T00:15:54.949Z,92.80
2018-12-08T00:16:54.939Z,92.44
2018-12-08T00:17:54.932Z,92.54
2018-12-08T00:18:54.945Z,92.64
2018-12-08T00:19:54.906Z,92.54
2018-12-08T00:20:54.893Z,93.05
2018-12-08T00:21:54.930Z,93.30
2018-12-08T00:22:54.873Z,93.40
2018-12-08T00:23:54.862Z,93.51
2018-12-08T00:24:54.859Z,93.30
2018-12-08T00:25:54.840Z,93.82
2018-12-08T00:26:54.829Z,93.40
2018-12-08T00:27:54.819Z,93.40
2018-12-08T00:28:54.812Z,93.14
2018-12-08T00:29:54.809Z,92.32
2018-12-08T00:30:54.787Z,92.83
2018-12-08T00:31:54.775Z,91.80
2018-12-08T00:32:54.764Z,91.19
2018-12-08T00:33:54.754Z,91.39
2018-12-08T00:34:54.756Z,90.88
2018-12-08T00:35:54.731Z,91.44
2018-12-08T00:36:54.723Z,91.85
2018-12-08T00:37:54.710Z,91.33
2018-12-08T00:38:54.699Z,91.85
2018-12-08T00:39:54.697Z,90.61
2018-12-08T00:40:54.682Z,90.09
2018-12-08T00:41:54.670Z,90.09
2018-12-08T00:42:54.660Z,90.09
2018-12-08T00:43:54.645Z,90.41
2018-12-08T00:44:54.645Z,90.00
2018-12-08T00:45:54.627Z,89.48
2018-12-08T00:46:54.624Z,89.31
2018-12-08T00:47:54.602Z,89.52
2018-12-08T00:48:54.591Z,88.90
2018-12-08T00:49:54.589Z,88.70
2018-12-08T00:50:54.569Z,89.94
2018-12-08T00:51:54.558Z,89.62
2018-12-08T00:52:54.547Z,89.31
2018-12-08T00:53:54.537Z,89.36
2018-12-08T00:54:54.555Z,89.52
2018-12-08T00:55:54.516Z,89.56
2018-12-08T00:56:54.510Z,88.43
2018-12-08T00:57:54.496Z,89.46
2018-12-08T00:58:54.487Z,89.61
2018-12-08T00:59:54.473Z,89.40
2018-12-08T01:00:54.471Z,88.57
2018-12-08T01:01:54.453Z,89.34
2018-12-08T01:02:54.440Z,88.78
2018-12-08T01:03:54.435Z,88.62
2018-12-08T01:04:54.420Z,89.54
2018-12-08T01:05:54.418Z,88.82
2018-12-08T01:06:54.399Z,89.13
2018-12-08T01:07:54.388Z,89.34
2018-12-08T01:08:54.377Z,89.23
2018-12-08T01:09:54.370Z,88.41
2018-12-08T01:10:54.368Z,88.51
2018-12-08T01:11:54.344Z,87.59
2018-12-08T01:12:54.334Z,88.76
2018-12-08T01:13:54.324Z,88.76
2018-12-08T01:14:54.315Z,89.07
2018-12-08T01:15:54.313Z,89.17
2018-12-08T01:16:54.291Z,88.56
2018-12-08T01:17:54.281Z,89.38
2018-12-08T01:18:54.270Z,88.86
2018-12-08T01:19:54.263Z,89.58
2018-12-08T01:20:54.263Z,89.38
2018-12-08T01:21:54.239Z,89.48
2018-12-08T01:22:54.228Z,89.38
2018-12-08T01:23:54.217Z,89.48
2018-12-08T01:24:54.209Z,89.01
2018-12-08T01:25:54.204Z,89.32
2018-12-08T01:26:54.185Z,88.56
2018-12-08T01:27:54.175Z,88.76
2018-12-08T01:28:54.166Z,88.90
2018-12-08T01:29:54.154Z,89.73
2018-12-08T01:30:54.152Z,89.42
2018-12-08T01:31:54.133Z,89.17
2018-12-08T01:32:54.578Z,89.07
2018-12-08T01:33:54.222Z,89.42
2018-12-08T01:34:54.105Z,89.32
2018-12-08T01:35:54.103Z,89.11
2018-12-08T01:36:54.083Z,90.04
2018-12-08T01:37:54.073Z,89.07
2018-12-08T01:38:54.064Z,89.58
2018-12-08T01:39:54.052Z,89.17
2018-12-08T01:40:54.077Z,88.86
2018-12-08T01:41:54.033Z,88.65
2018-12-08T01:42:54.020Z,88.65
2018-12-08T01:43:54.010Z,89.79
2018-12-08T01:44:54.003Z,88.86
2018-12-08T01:45:53.989Z,88.65
2018-12-08T01:46:53.986Z,89.79
2018-12-08T01:47:53.968Z,88.65
2018-12-08T01:48:53.958Z,89.69
2018-12-08T01:49:53.949Z,88.96
2018-12-08T01:50:53.938Z,89.07
2018-12-08T01:51:53.935Z,88.24
2018-12-08T01:52:53.915Z,88.65
2018-12-08T01:53:53.905Z,88.86
2018-12-08T01:54:53.893Z,88.86
2018-12-08T01:55:53.882Z,88.96
2018-12-08T01:56:53.881Z,88.76
2018-12-08T01:57:53.861Z,89.58
2018-12-08T01:58:53.851Z,89.28
2018-12-08T01:59:53.840Z,89.48
2018-12-08T02:00:53.830Z,89.17
2018-12-08T02:01:53.827Z,88.86
2018-12-08T02:02:53.813Z,89.28
2018-12-08T02:03:53.798Z,89.58
2018-12-08T02:04:53.790Z,89.48
2018-12-08T02:05:53.777Z,88.86
2018-12-08T02:06:53.777Z,88.35
2018-12-08T02:07:53.758Z,89.22
2018-12-08T02:08:53.753Z,89.73
2018-12-08T02:09:53.737Z,88.76
2018-12-08T02:10:53.723Z,88.86
2018-12-08T02:11:53.722Z,89.69
2018-12-08T02:12:53.707Z,88.49
2018-12-08T02:13:53.692Z,88.35
2018-12-08T02:14:53.681Z,88.18
2018-12-08T02:15:53.672Z,87.56
2018-12-08T02:16:53.673Z,87.87
2018-12-08T02:17:53.648Z,88.39
2018-12-08T02:18:53.637Z,87.98
2018-12-08T02:19:53.627Z,88.08
2018-12-08T02:20:53.616Z,88.90
2018-12-08T02:21:53.607Z,87.77
2018-12-08T02:22:53.604Z,87.98
2018-12-08T02:23:53.584Z,88.70
2018-12-08T02:24:53.577Z,88.29
2018-12-08T02:25:53.566Z,87.98
2018-12-08T02:26:53.554Z,88.80
2018-12-08T02:27:53.553Z,88.49
2018-12-08T02:28:53.533Z,88.74
2018-12-08T02:29:53.520Z,88.29
2018-12-08T02:30:53.508Z,88.90
2018-12-08T02:31:53.505Z,87.26
2018-12-08T02:32:53.735Z,87.56
2018-12-08T02:33:53.477Z,86.94
2018-12-08T02:34:53.466Z,87.46
2018-12-08T02:35:53.457Z,87.46
2018-12-08T02:36:53.448Z,87.05
2018-12-08T02:37:53.451Z,87.35
2018-12-08T02:38:53.426Z,86.43
2018-12-08T02:39:53.414Z,86.43
2018-12-08T02:40:53.404Z,86.12
2018-12-08T02:41:53.394Z,86.63
2018-12-08T02:42:53.391Z,85.67
2018-12-08T02:43:53.376Z,86.53
2018-12-08T02:44:53.367Z,85.50
2018-12-08T02:45:53.351Z,85.81
2018-12-08T02:46:53.340Z,86.32
2018-12-08T02:47:53.342Z,86.74
2018-12-08T02:48:53.323Z,85.60
2018-12-08T02:49:53.308Z,86.32
2018-12-08T02:50:53.300Z,85.91
2018-12-08T02:51:53.285Z,85.81
2018-12-08T02:52:53.285Z,84.78
2018-12-08T02:53:53.271Z,84.67
2018-12-08T02:54:53.255Z,84.99
2018-12-08T02:55:53.244Z,84.57
2018-12-08T02:56:53.234Z,84.51
2018-12-08T02:57:53.250Z,84.61
2018-12-08T02:58:53.214Z,85.33
2018-12-08T02:59:53.204Z,84.81
2018-12-08T03:00:53.191Z,84.72
2018-12-08T03:01:53.181Z,84.61
2018-12-08T03:02:53.300Z,85.95
2018-12-08T03:03:53.167Z,84.81
2018-12-08T03:04:53.148Z,85.02
2018-12-08T03:05:53.137Z,85.64
2018-12-08T03:06:53.127Z,84.72
2018-12-08T03:07:53.119Z,85.27
2018-12-08T03:08:53.114Z,84.86
2018-12-08T03:09:53.100Z,85.17
2018-12-08T03:10:53.085Z,85.37
2018-12-08T03:11:53.074Z,84.55
2018-12-08T03:12:53.065Z,85.37
2018-12-08T03:13:53.060Z,86.10
2018-12-08T03:14:53.042Z,85.58
2018-12-08T03:15:53.031Z,85.99
2018-12-08T03:16:53.031Z,86.92
2018-12-08T03:17:53.011Z,86.41
2018-12-08T03:18:53.007Z,87.02
2018-12-08T03:19:52.989Z,87.44
2018-12-08T03:20:52.979Z,87.44
2018-12-08T03:21:52.968Z,87.65
2018-12-08T03:22:52.958Z,86.71
2018-12-08T03:23:52.967Z,86.20
2018-12-08T03:24:52.939Z,85.75
2018-12-08T03:25:52.924Z,85.68
2018-12-08T03:26:52.913Z,85.54
2018-12-08T03:27:52.903Z,85.23
2018-12-08T03:28:52.903Z,84.65
2018-12-08T03:29:52.883Z,84.72
2018-12-08T03:30:52.875Z,84.20
2018-12-08T03:31:52.869Z,84.78
2018-12-08T03:32:52.856Z,84.41
2018-12-08T03:33:52.870Z,83.23
2018-12-08T03:34:52.832Z,84.20
2018-12-08T03:35:52.823Z,84.51
2018-12-08T03:36:52.808Z,82.65
2018-12-08T03:37:52.801Z,82.86
2018-12-08T03:38:52.791Z,82.61
2018-12-08T03:39:52.785Z,83.17
2018-12-08T03:40:52.768Z,81.99
2018-12-08T03:41:52.759Z,82.96
2018-12-08T03:42:52.747Z,82.92
2018-12-08T03:43:52.736Z,83.27
2018-12-08T03:44:52.732Z,84.16
2018-12-08T03:45:52.712Z,84.92
2018-12-08T03:46:52.702Z,84.41
2018-12-08T03:47:52.698Z,84.30
2018-12-08T03:48:52.684Z,85.23
2018-12-08T03:49:52.681Z,84.61
2018-12-08T03:50:52.660Z,84.20
2018-12-08T03:51:52.651Z,83.48
2018-12-08T03:52:52.641Z,83.27
2018-12-08T03:53:52.632Z,84.72
2018-12-08T03:54:52.633Z,84.61
2018-12-08T03:55:52.612Z,84.41
2018-12-08T03:56:52.595Z,84.20
2018-12-08T03:57:52.587Z,85.95
2018-12-08T03:58:52.582Z,82.14
2018-12-08T03:59:52.596Z,82.65
2018-12-08T04:00:52.555Z,82.14
2018-12-08T04:01:52.543Z,82.45
2018-12-08T04:02:52.534Z,82.45
2018-12-08T04:03:52.522Z,81.51
2018-12-08T04:04:52.512Z,80.90
2018-12-08T04:05:52.511Z,80.38
2018-12-08T04:06:52.490Z,82.24
2018-12-08T04:07:52.480Z,82.14
2018-12-08T04:08:52.472Z,81.31
2018-12-08T04:09:52.464Z,81.41
2018-12-08T04:10:52.458Z,81.24
2018-12-08T04:11:52.441Z,82.17
2018-12-08T04:12:52.427Z,82.89
2018-12-08T04:13:52.414Z,82.89
2018-12-08T04:14:52.405Z,82.00
2018-12-08T04:15:52.405Z,82.10
2018-12-08T04:16:52.388Z,82.21
2018-12-08T04:17:52.380Z,83.25
2018-12-08T04:18:52.362Z,82.00
2018-12-08T04:19:52.351Z,82.21
2018-12-08T04:20:52.348Z,83.65
2018-12-08T04:21:52.328Z,83.90
2018-12-08T04:22:52.322Z,83.07
2018-12-08T04:23:52.307Z,83.39
2018-12-08T04:24:52.295Z,83.22
2018-12-08T04:25:52.295Z,83.32
2018-12-08T04:26:52.276Z,84.36
2018-12-08T04:27:52.265Z,83.01
2018-12-08T04:28:52.256Z,82.90
2018-12-08T04:29:52.255Z,83.01
2018-12-08T04:30:52.246Z,82.70
2018-12-08T04:31:52.222Z,82.90
2018-12-08T04:32:52.211Z,82.90
2018-12-08T04:33:52.199Z,83.22
2018-12-08T04:34:52.194Z,84.77
2018-12-08T04:35:52.186Z,82.84
2018-12-08T04:36:52.169Z,82.50
2018-12-08T04:37:52.156Z,83.32
2018-12-08T04:38:52.146Z,82.90
2018-12-08T04:39:52.137Z,82.80
2018-12-08T04:40:52.134Z,84.05
2018-12-08T04:41:52.113Z,85.11
2018-12-08T04:42:52.103Z,83.01
2018-12-08T04:43:52.092Z,83.53
2018-12-08T04:44:52.082Z,83.05
2018-12-08T04:45:52.080Z,82.39
2018-12-08T04:46:52.065Z,84.29
2018-12-08T04:47:52.054Z,83.67
2018-12-08T04:48:52.037Z,83.05
2018-12-08T04:49:52.030Z,83.22
2018-12-08T04:50:52.024Z,83.36
2018-12-08T04:51:52.004Z,83.84
2018-12-08T04:52:52.000Z,84.87
2018-12-08T04:53:51.983Z,84.45
2018-12-08T04:54:51.971Z,84.25
2018-12-08T04:55:51.973Z,82.90
2018-12-08T04:56:51.950Z,82.50
2018-12-08T04:57:51.946Z,82.56
2018-12-08T04:58:51.929Z,82.50
2018-12-08T04:59:51.919Z,81.94
2018-12-08T05:00:51.920Z,83.01
2018-12-08T05:01:51.896Z,82.90
2018-12-08T05:02:51.887Z,83.22
2018-12-08T05:03:51.881Z,83.53
2018-12-08T05:04:51.871Z,82.70
2018-12-08T05:05:51.894Z,83.53
2018-12-08T05:06:51.844Z,83.01
2018-12-08T05:07:51.835Z,82.39
2018-12-08T05:08:51.825Z,83.53
2018-12-08T05:09:51.817Z,82.53
2018-12-08T05:10:51.802Z,82.32
2018-12-08T05:11:51.797Z,82.84
2018-12-08T05:12:51.778Z,83.36
2018-12-08T05:13:51.768Z,84.91
2018-12-08T05:14:51.761Z,84.29
2018-12-08T05:15:51.747Z,83.81
2018-12-08T05:16:51.747Z,84.64
2018-12-08T05:17:51.725Z,84.95
2018-12-08T05:18:51.713Z,84.84
2018-12-08T05:19:51.703Z,84.74
2018-12-08T05:20:51.691Z,84.53
2018-12-08T05:21:51.693Z,85.05
2018-12-08T05:22:51.701Z,84.84
2018-12-08T05:23:51.660Z,84.84
2018-12-08T05:24:51.649Z,84.39
2018-12-08T05:25:51.639Z,83.05
2018-12-08T05:26:51.639Z,84.97
2018-12-08T05:27:51.618Z,84.08
2018-12-08T05:28:51.606Z,83.36
2018-12-08T05:29:51.595Z,83.32
2018-12-08T05:30:51.585Z,84.45
2018-12-08T05:31:51.586Z,84.45
2018-12-08T05:32:51.565Z,83.73
2018-12-08T05:33:51.554Z,84.97
2018-12-08T05:34:51.542Z,83.67
2018-12-08T05:35:51.531Z,84.15
2018-12-08T05:36:51.528Z,82.90
2018-12-08T05:37:51.509Z,84.87
2018-12-08T05:38:51.503Z,83.11
2018-12-08T05:39:51.487Z,82.39
2018-12-08T05:40:51.476Z,82.39
2018-12-08T05:41:51.476Z,82.80
2018-12-08T05:42:51.456Z,82.80
2018-12-08T05:43:51.450Z,83.01
2018-12-08T05:44:51.433Z,83.15
2018-12-08T05:45:51.422Z,82.53
2018-12-08T05:46:51.420Z,83.77
2018-12-08T05:47:51.403Z,83.98
2018-12-08T05:48:51.391Z,83.50
2018-12-08T05:49:51.379Z,83.50
2018-12-08T05:50:51.370Z,82.78
2018-12-08T05:51:51.366Z,83.87
2018-12-08T05:52:51.348Z,84.43
2018-12-08T05:53:51.336Z,84.74
2018-12-08T05:54:51.325Z,84.74
2018-12-08T05:55:51.318Z,83.29
2018-12-08T05:56:51.319Z,84.47
2018-12-08T05:57:51.293Z,85.47
2018-12-08T05:58:51.282Z,84.99
2018-12-08T05:59:51.272Z,84.47
2018-12-08T06:00:51.261Z,83.85
2018-12-08T06:01:51.263Z,85.05
2018-12-08T06:02:51.240Z,85.09
2018-12-08T06:03:51.232Z,85.09
2018-12-08T06:04:51.219Z,84.88
2018-12-08T06:05:51.208Z,83.44
2018-12-08T06:06:51.205Z,83.75
2018-12-08T06:07:51.194Z,84.68
2018-12-08T06:08:51.175Z,82.92
2018-12-08T06:09:51.168Z,83.95
2018-12-08T06:10:51.155Z,83.85
2018-12-08T06:11:51.156Z,83.85
2018-12-08T06:12:51.137Z,83.40
2018-12-08T06:13:51.130Z,84.37
2018-12-08T06:14:51.113Z,84.47
2018-12-08T06:15:51.101Z,83.81
2018-12-08T06:16:51.099Z,83.33
2018-12-08T06:17:51.084Z,84.74
2018-12-08T06:18:51.073Z,83.64
2018-12-08T06:19:51.059Z,84.53
2018-12-08T06:20:51.048Z,84.95
2018-12-08T06:21:51.051Z,84.01
2018-12-08T06:22:51.027Z,85.26
2018-12-08T06:23:51.023Z,85.26
2018-12-08T06:24:51.006Z,82.15
2018-12-08T06:25:50.995Z,83.81
2018-12-08T06:26:51.017Z,84.29
2018-12-08T06:27:50.974Z,83.98
2018-12-08T06:28:50.964Z,83.09
2018-12-08T06:29:50.953Z,83.71
2018-12-08T06:30:51.019Z,83.29
2018-12-08T06:31:50.934Z,83.19
2018-12-08T06:32:50.930Z,80.98
2018-12-08T06:33:50.914Z,83.77
2018-12-08T06:34:50.901Z,83.09
2018-12-08T06:35:50.890Z,81.33
2018-12-08T06:36:50.881Z,82.46
2018-12-08T06:37:50.876Z,81.54
2018-12-08T06:38:50.858Z,82.36
2018-12-08T06:39:50.848Z,83.50
2018-12-08T06:40:50.837Z,83.09
2018-12-08T06:41:50.827Z,82.57
2018-12-08T06:42:50.824Z,82.88
2018-12-08T06:43:50.805Z,84.64
2018-12-08T06:44:50.795Z,82.92
2018-12-08T06:45:50.783Z,82.50
2018-12-08T06:46:50.782Z,83.85
2018-12-08T06:47:50.774Z,84.82
2018-12-08T06:48:50.755Z,84.37
2018-12-08T06:49:50.743Z,84.09
2018-12-08T06:50:50.732Z,82.95
2018-12-08T06:51:50.723Z,83.89
2018-12-08T06:52:50.719Z,84.82
2018-12-08T06:53:50.700Z,84.20
2018-12-08T06:54:50.695Z,84.51
2018-12-08T06:55:50.680Z,84.72
2018-12-08T06:56:50.668Z,84.61
2018-12-08T06:57:50.666Z,84.82
2018-12-08T06:58:50.648Z,85.13
2018-12-08T06:59:50.639Z,84.55
2018-12-08T07:00:50.633Z,83.68
2018-12-08T07:01:50.616Z,84.92
2018-12-08T07:02:50.613Z,84.09
2018-12-08T07:03:50.593Z,83.47
2018-12-08T07:04:50.686Z,84.51
2018-12-08T07:05:50.572Z,85.65
2018-12-08T07:06:50.562Z,84.61
2018-12-08T07:07:50.561Z,84.55
2018-12-08T07:08:50.541Z,84.65
2018-12-08T07:09:50.530Z,85.58
2018-12-08T07:10:50.520Z,85.17
2018-12-08T07:11:50.509Z,85.58
2018-12-08T07:12:50.513Z,85.38
2018-12-08T07:13:50.489Z,85.86
2018-12-08T07:14:50.477Z,87.10
2018-12-08T07:15:50.466Z,85.65
2018-12-08T07:16:50.456Z,85.86
2018-12-08T07:17:50.455Z,85.55
2018-12-08T07:18:50.438Z,86.07
2018-12-08T07:19:50.425Z,85.50
2018-12-08T07:20:50.414Z,86.85
2018-12-08T07:21:50.404Z,85.50
2018-12-08T07:22:50.403Z,83.75
2018-12-08T07:23:50.384Z,84.37
2018-12-08T07:24:50.372Z,82.78
2018-12-08T07:25:50.364Z,81.23
2018-12-08T07:26:50.351Z,82.36
2018-12-08T07:27:50.353Z,81.54
2018-12-08T07:28:50.331Z,82.67
2018-12-08T07:29:50.322Z,82.46
2018-12-08T07:30:50.308Z,82.78
2018-12-08T07:31:50.298Z,82.26
2018-12-08T07:32:50.312Z,82.57
2018-12-08T07:33:50.277Z,81.23
2018-12-08T07:34:50.347Z,82.57
2018-12-08T07:35:50.259Z,80.71
2018-12-08T07:36:50.244Z,81.23
2018-12-08T07:37:50.235Z,80.50
2018-12-08T07:38:50.232Z,81.49
2018-12-08T07:39:50.213Z,82.12
2018-12-08T07:40:50.203Z,82.32
2018-12-08T07:41:50.196Z,81.39
2018-12-08T07:42:50.182Z,80.32
2018-12-08T07:43:50.179Z,79.80
2018-12-08T07:44:50.160Z,81.15
2018-12-08T07:45:50.153Z,82.39
2018-12-08T07:46:50.142Z,82.39
2018-12-08T07:47:50.128Z,82.60
2018-12-08T07:48:50.125Z,81.87
2018-12-08T07:49:50.108Z,82.50
2018-12-08T07:50:50.101Z,81.25
2018-12-08T07:51:50.088Z,81.15
2018-12-08T07:52:50.079Z,81.35
2018-12-08T07:53:50.084Z,82.08
2018-12-08T07:54:50.159Z,81.35
2018-12-08T07:55:50.118Z,80.98
2018-12-08T07:56:50.112Z,79.49
2018-12-08T07:57:50.111Z,81.29
2018-12-08T07:58:50.741Z,81.98
2018-12-08T07:59:50.099Z,82.39
2018-12-08T08:00:50.180Z,80.15
2018-12-08T08:01:49.983Z,81.49
2018-12-08T08:02:49.972Z,82.64
2018-12-08T08:03:49.968Z,81.60
2018-12-08T08:04:49.950Z,82.22
2018-12-08T08:05:49.934Z,82.53
2018-12-08T08:06:49.924Z,81.49
2018-12-08T08:07:49.912Z,81.19
2018-12-08T08:08:49.910Z,82.32
2018-12-08T08:09:49.891Z,84.39
2018-12-08T08:10:49.889Z,80.98
2018-12-08T08:11:49.870Z,80.46
2018-12-08T08:12:49.860Z,80.57
2018-12-08T08:13:49.860Z,82.32
2018-12-08T08:14:49.839Z,78.98
2018-12-08T08:15:49.826Z,80.67
2018-12-08T08:16:49.816Z,80.98
2018-12-08T08:17:49.805Z,80.01
2018-12-08T08:18:49.803Z,81.67
2018-12-08T08:19:49.782Z,81.05
2018-12-08T08:20:49.773Z,80.43
2018-12-08T08:21:49.762Z,80.53
2018-12-08T08:22:49.750Z,81.05
2018-12-08T08:23:49.750Z,79.29
2018-12-08T08:24:49.729Z,79.49
2018-12-08T08:25:49.720Z,80.94
2018-12-08T08:26:49.710Z,79.49
2018-12-08T08:27:49.700Z,79.49
2018-12-08T08:28:49.703Z,80.32
2018-12-08T08:29:49.675Z,79.39
2018-12-08T08:30:49.667Z,80.22
2018-12-08T08:31:49.738Z,81.05
2018-12-08T08:32:49.642Z,80.22
2018-12-08T08:33:49.648Z,80.22
2018-12-08T08:34:49.621Z,80.84
2018-12-08T08:35:49.610Z,81.15
2018-12-08T08:36:49.598Z,79.60
2018-12-08T08:37:49.590Z,80.01
2018-12-08T08:38:49.589Z,82.18
2018-12-08T08:39:49.573Z,82.50
2018-12-08T08:40:49.560Z,80.74
2018-12-08T08:41:49.546Z,79.91
2018-12-08T08:42:49.537Z,80.63
2018-12-08T08:43:49.535Z,79.60
2018-12-08T08:44:49.516Z,80.63
2018-12-08T08:45:49.513Z,79.39
2018-12-08T08:46:49.491Z,80.84
2018-12-08T08:47:49.509Z,81.56
2018-12-08T08:48:49.480Z,81.05
2018-12-08T08:49:49.459Z,80.11
2018-12-08T08:50:49.450Z,79.70
2018-12-08T08:51:49.437Z,81.05
2018-12-08T08:52:49.428Z,79.56
2018-12-08T08:53:49.494Z,80.39
2018-12-08T08:54:49.406Z,80.29
2018-12-08T08:55:49.408Z,80.18
2018-12-08T08:56:49.386Z,78.84
2018-12-08T08:57:49.373Z,78.94
2018-12-08T08:58:49.375Z,79.36
2018-12-08T08:59:49.361Z,77.81
2018-12-08T09:00:49.340Z,79.63
2018-12-08T09:01:49.331Z,80.76
2018-12-08T09:02:49.327Z,78.08
2018-12-08T09:03:49.308Z,79.22
2018-12-08T09:04:49.305Z,78.80
2018-12-08T09:05:49.290Z,78.91
2018-12-08T09:06:49.277Z,79.11
2018-12-08T09:07:49.267Z,78.59
2018-12-08T09:08:49.260Z,80.46
2018-12-08T09:09:49.252Z,77.98
2018-12-08T09:10:49.233Z,79.63
2018-12-08T09:11:49.221Z,78.08
2018-12-08T09:12:49.212Z,78.08
2018-12-08T09:13:49.202Z,77.98
2018-12-08T09:14:49.204Z,79.18
2018-12-08T09:15:49.971Z,78.05
2018-12-08T09:16:49.168Z,78.25
2018-12-08T09:17:49.157Z,77.94
2018-12-08T09:18:49.147Z,77.11
2018-12-08T09:19:49.146Z,78.42
2018-12-08T09:20:49.124Z,77.53
2018-12-08T09:21:49.113Z,77.53
2018-12-08T09:22:49.111Z,77.42
2018-12-08T09:23:49.093Z,76.18
2018-12-08T09:24:49.090Z,76.56
2018-12-08T09:25:49.072Z,76.15
2018-12-08T09:26:49.060Z,77.49
2018-12-08T09:27:49.295Z,76.39
2018-12-08T09:28:49.040Z,77.32
2018-12-08T09:29:49.069Z,76.77
2018-12-08T09:30:49.018Z,77.73
2018-12-08T09:31:49.012Z,77.32
2018-12-08T09:32:48.995Z,76.87
2018-12-08T09:33:48.985Z,78.94
2018-12-08T09:34:48.977Z,78.56
2018-12-08T09:35:48.983Z,77.84
2018-12-08T09:36:48.954Z,77.32
2018-12-08T09:37:48.949Z,78.35
2018-12-08T09:38:48.932Z,77.28
2018-12-08T09:39:48.923Z,77.22
2018-12-08T09:40:48.920Z,77.84
2018-12-08T09:41:48.902Z,77.91
2018-12-08T09:42:48.891Z,76.87
2018-12-08T09:43:48.897Z,87.87
2018-12-08T09:44:48.869Z,85.96
2018-12-08T09:45:48.869Z,73.71
2018-12-08T09:46:48.848Z,72.47
2018-12-08T09:47:48.917Z,74.05
2018-12-08T09:48:48.842Z,75.18
2018-12-08T09:49:48.818Z,75.01
2018-12-08T09:50:48.816Z,76.35
2018-12-08T09:51:48.795Z,75.98
2018-12-08T09:52:48.785Z,75.15
2018-12-08T09:53:48.779Z,76.84
2018-12-08T09:54:48.773Z,77.25
2018-12-08T09:55:48.771Z,76.84
2018-12-08T09:56:48.742Z,76.94
2018-12-08T09:57:48.733Z,76.63
2018-12-08T09:58:48.721Z,75.39
2018-12-08T09:59:48.710Z,77.04
2018-12-08T10:00:48.714Z,78.59
2018-12-08T10:01:48.689Z,81.03
2018-12-08T10:02:48.682Z,77.62
2018-12-08T10:03:48.667Z,75.98
2018-12-08T10:04:48.656Z,76.80
2018-12-08T10:05:48.658Z,76.70
2018-12-08T10:06:48.643Z,78.97
2018-12-08T10:07:48.625Z,76.59
2018-12-08T10:08:48.614Z,77.83
2018-12-08T10:09:48.607Z,77.01
2018-12-08T10:10:48.608Z,77.42
2018-12-08T10:11:48.583Z,76.29
2018-12-08T10:12:48.577Z,77.22
2018-12-08T10:13:48.562Z,77.01
2018-12-08T10:14:48.553Z,76.29
2018-12-08T10:15:48.568Z,76.80
2018-12-08T10:16:48.529Z,77.11
2018-12-08T10:17:48.520Z,76.66
2018-12-08T10:18:48.532Z,76.15
2018-12-08T10:19:48.500Z,77.80
2018-12-08T10:20:48.489Z,77.76
2018-12-08T10:21:48.486Z,74.91
2018-12-08T10:22:48.468Z,76.46
2018-12-08T10:23:48.457Z,76.04
2018-12-08T10:24:48.467Z,74.29
2018-12-08T10:25:48.435Z,75.63
2018-12-08T10:26:48.433Z,76.73
2018-12-08T10:27:48.413Z,74.40
2018-12-08T10:28:48.405Z,73.88
2018-12-08T10:29:48.396Z,74.19
2018-12-08T10:30:48.382Z,74.50
2018-12-08T10:31:48.383Z,75.22
2018-12-08T10:32:48.362Z,77.80
2018-12-08T10:33:48.354Z,76.66
2018-12-08T10:34:48.345Z,76.46
2018-12-08T10:35:48.329Z,77.18
2018-12-08T10:36:48.331Z,76.46
2018-12-08T10:37:48.308Z,76.90
2018-12-08T10:38:48.298Z,74.02
2018-12-08T10:39:48.289Z,75.87
2018-12-08T10:40:48.276Z,76.08
2018-12-08T10:41:48.277Z,77.73
2018-12-08T10:42:48.257Z,76.90
2018-12-08T10:43:48.245Z,76.59
2018-12-08T10:44:48.236Z,77.62
2018-12-08T10:45:48.224Z,77.22
2018-12-08T10:46:48.224Z,77.22
2018-12-08T10:47:48.204Z,76.80
2018-12-08T10:48:48.193Z,76.70
2018-12-08T10:49:48.182Z,75.36
2018-12-08T10:50:48.171Z,77.42
2018-12-08T10:51:48.193Z,76.46
2018-12-08T10:52:48.151Z,75.84
2018-12-08T10:53:48.141Z,75.94
2018-12-08T10:54:48.129Z,77.08
2018-12-08T10:55:48.118Z,76.76
2018-12-08T10:56:48.108Z,77.66
2018-12-08T10:57:48.105Z,77.80
2018-12-08T10:58:48.086Z,75.22
2018-12-08T10:59:48.080Z,75.84
2018-12-08T11:00:48.065Z,76.56
2018-12-08T11:01:48.055Z,74.60
2018-12-08T11:02:48.054Z,76.66
2018-12-08T11:03:48.057Z,77.80
2018-12-08T11:04:48.024Z,76.04
2018-12-08T11:05:48.019Z,76.56
2018-12-08T11:06:48.005Z,76.66
2018-12-08T11:07:48.000Z,76.83
2018-12-08T11:08:47.981Z,75.94
2018-12-08T11:09:47.973Z,76.53
2018-12-08T11:10:47.966Z,76.63
2018-12-08T11:11:47.953Z,76.42
2018-12-08T11:12:47.946Z,75.90
2018-12-08T11:13:47.927Z,76.73
2018-12-08T11:14:47.917Z,76.53
2018-12-08T11:15:47.910Z,77.14
2018-12-08T11:16:47.900Z,77.08
2018-12-08T11:17:47.895Z,77.76
2018-12-08T11:18:47.875Z,78.21
2018-12-08T11:19:47.864Z,78.00
2018-12-08T11:20:47.854Z,77.80
2018-12-08T11:21:47.846Z,77.08
2018-12-08T11:22:47.842Z,76.56
2018-12-08T11:23:47.846Z,77.31
2018-12-08T11:24:47.813Z,77.28
2018-12-08T11:25:47.801Z,77.69
2018-12-08T11:26:47.790Z,76.76
2018-12-08T11:27:47.789Z,75.94
2018-12-08T11:28:47.774Z,76.76
2018-12-08T11:29:47.761Z,78.41
2018-12-08T11:30:47.749Z,77.08
2018-12-08T11:31:47.739Z,75.84
2018-12-08T11:32:47.738Z,76.73
2018-12-08T11:33:47.716Z,77.38
2018-12-08T11:34:47.710Z,76.04
2018-12-08T11:35:49.639Z,77.28
2018-12-08T11:36:49.695Z,76.15
2018-12-08T11:37:47.702Z,75.81
2018-12-08T11:38:47.663Z,76.66
2018-12-08T11:39:47.652Z,76.53
2018-12-08T11:40:47.649Z,74.46
2018-12-08T11:41:47.633Z,76.11
2018-12-08T11:42:47.620Z,75.90
2018-12-08T11:43:47.619Z,75.81
2018-12-08T11:44:47.600Z,74.77
2018-12-08T11:45:47.590Z,75.81
2018-12-08T11:46:47.586Z,75.90
2018-12-08T11:47:47.568Z,75.81
2018-12-08T11:48:47.567Z,76.11
2018-12-08T11:49:47.551Z,76.42
2018-12-08T11:50:47.537Z,75.70
2018-12-08T11:51:47.529Z,75.81
2018-12-08T11:52:47.520Z,75.39
2018-12-08T11:53:47.514Z,75.08
2018-12-08T11:54:47.494Z,73.95
2018-12-08T11:55:47.483Z,75.08
2018-12-08T11:56:47.473Z,76.18
2018-12-08T11:57:47.464Z,73.91
2018-12-08T11:58:47.462Z,75.77
2018-12-08T11:59:47.441Z,76.42
2018-12-08T12:00:47.431Z,75.56
2018-12-08T12:01:47.420Z,75.18
2018-12-08T12:02:47.427Z,75.67
2018-12-08T12:03:47.406Z,75.49
2018-12-08T12:04:47.388Z,74.77
2018-12-08T12:05:47.379Z,74.53
2018-12-08T12:06:47.368Z,75.08
2018-12-08T12:07:47.356Z,74.88
2018-12-08T12:08:47.355Z,74.98
2018-12-08T12:09:47.336Z,75.46
2018-12-08T12:10:47.324Z,76.21
2018-12-08T12:11:47.313Z,74.16
2018-12-08T12:12:47.306Z,75.97
2018-12-08T12:13:47.303Z,75.77
2018-12-08T12:14:47.282Z,75.15
2018-12-08T12:15:47.276Z,76.79
2018-12-08T12:16:47.260Z,74.33
2018-12-08T12:17:47.251Z,75.56
2018-12-08T12:18:47.249Z,74.33
2018-12-08T12:19:47.230Z,75.77
2018-12-08T12:20:47.217Z,75.77
2018-12-08T12:21:47.212Z,77.83
2018-12-08T12:22:47.199Z,75.77
2018-12-08T12:23:47.196Z,76.07
2018-12-08T12:24:47.176Z,75.15
2018-12-08T12:25:47.166Z,73.81
2018-12-08T12:26:47.155Z,75.77
2018-12-08T12:27:47.155Z,73.91
2018-12-08T12:28:47.165Z,76.59
2018-12-08T12:29:47.122Z,76.79
2018-12-08T12:30:47.198Z,74.43
2018-12-08T12:31:47.105Z,74.74
2018-12-08T12:32:47.091Z,74.53
2018-12-08T12:33:47.087Z,74.53
2018-12-08T12:34:47.080Z,75.05
2018-12-08T12:35:47.058Z,75.77
2018-12-08T12:36:47.047Z,74.43
2018-12-08T12:37:47.037Z,75.35
2018-12-08T12:38:47.031Z,75.15
2018-12-08T12:39:47.029Z,74.95
2018-12-08T12:40:47.006Z,75.25
2018-12-08T12:41:46.994Z,75.77
2018-12-08T12:42:46.984Z,73.71
2018-12-08T12:43:46.976Z,74.95
2018-12-08T12:44:46.972Z,73.91
2018-12-08T12:45:46.954Z,75.63
2018-12-08T12:46:46.940Z,75.15
2018-12-08T12:47:46.934Z,73.91
2018-12-08T12:48:46.923Z,72.85
2018-12-08T12:49:46.919Z,75.12
2018-12-08T12:50:46.899Z,73.09
2018-12-08T12:51:46.889Z,73.78
2018-12-08T12:52:46.879Z,72.85